sensor_id;sensor_type;location;lat;lon;timestamp;P1;durP1;ratioP1;P2;durP2;ratioP2
14681;SDS011;7429;52.498;13.480;2023-04-24T00:00:11;7.60;;;6.90;;
14681;SDS011;7429;52.498;13.480;2023-04-24T00:03:16;8.73;;;8.03;;
14681;SDS011;7429;52.498;13.480;2023-04-24T00:06:22;8.53;;;7.70;;
14681;SDS011;7429;52.498;13.480;2023-04-24T00:09:25;9.27;;;8.37;;
14681;SDS011;7429;52.498;13.480;2023-04-24T00:12:30;8.27;;;7.47;;
14681;SDS011;7429;52.498;13.480;2023-04-24T00:15:34;9.50;;;8.70;;
14681;SDS011;7429;52.498;13.480;2023-04-24T00:18:37;9.70;;;8.90;;
14681;SDS011;7429;52.498;13.480;2023-04-24T00:21:41;10.10;;;9.33;;
14681;SDS011;7429;52.498;13.480;2023-04-24T00:24:44;8.97;;;8.30;;
14681;SDS011;7429;52.498;13.480;2023-04-24T00:27:48;8.40;;;7.60;;
14681;SDS011;7429;52.498;13.480;2023-04-24T00:30:52;9.60;;;8.80;;
14681;SDS011;7429;52.498;13.480;2023-04-24T00:33:55;9.67;;;7.27;;
14681;SDS011;7429;52.498;13.480;2023-04-24T00:36:58;8.83;;;8.07;;
14681;SDS011;7429;52.498;13.480;2023-04-24T00:40:01;8.27;;;7.43;;
14681;SDS011;7429;52.498;13.480;2023-04-24T00:43:07;8.03;;;7.33;;
14681;SDS011;7429;52.498;13.480;2023-04-24T00:46:11;7.90;;;7.20;;
14681;SDS011;7429;52.498;13.480;2023-04-24T00:49:15;8.00;;;7.30;;
14681;SDS011;7429;52.498;13.480;2023-04-24T00:52:18;12.03;;;9.37;;
14681;SDS011;7429;52.498;13.480;2023-04-24T00:55:22;12.27;;;8.20;;
14681;SDS011;7429;52.498;13.480;2023-04-24T00:58:26;10.80;;;8.10;;
14681;SDS011;7429;52.498;13.480;2023-04-24T01:01:30;9.10;;;8.30;;
14681;SDS011;7429;52.498;13.480;2023-04-24T01:04:34;9.73;;;9.03;;
14681;SDS011;7429;52.498;13.480;2023-04-24T01:07:38;10.77;;;9.83;;
14681;SDS011;7429;52.498;13.480;2023-04-24T01:10:45;9.17;;;8.37;;
14681;SDS011;7429;52.498;13.480;2023-04-24T01:13:54;9.00;;;8.10;;
14681;SDS011;7429;52.498;13.480;2023-04-24T01:16:57;9.13;;;8.43;;
14681;SDS011;7429;52.498;13.480;2023-04-24T01:20:02;10.53;;;9.53;;
14681;SDS011;7429;52.498;13.480;2023-04-24T01:23:13;11.73;;;10.63;;
14681;SDS011;7429;52.498;13.480;2023-04-24T01:26:19;11.93;;;10.03;;
14681;SDS011;7429;52.498;13.480;2023-04-24T01:29:22;10.27;;;9.27;;
14681;SDS011;7429;52.498;13.480;2023-04-24T01:32:26;11.63;;;10.43;;
14681;SDS011;7429;52.498;13.480;2023-04-24T01:35:34;10.90;;;9.80;;
14681;SDS011;7429;52.498;13.480;2023-04-24T01:38:39;11.63;;;10.53;;
14681;SDS011;7429;52.498;13.480;2023-04-24T01:41:43;10.23;;;9.33;;
14681;SDS011;7429;52.498;13.480;2023-04-24T01:44:46;11.50;;;10.53;;
14681;SDS011;7429;52.498;13.480;2023-04-24T01:47:49;9.57;;;8.67;;
14681;SDS011;7429;52.498;13.480;2023-04-24T01:50:53;9.43;;;8.63;;
14681;SDS011;7429;52.498;13.480;2023-04-24T01:53:57;9.03;;;8.23;;
14681;SDS011;7429;52.498;13.480;2023-04-24T01:57:00;9.87;;;9.07;;
14681;SDS011;7429;52.498;13.480;2023-04-24T02:00:04;9.80;;;8.77;;
14681;SDS011;7429;52.498;13.480;2023-04-24T02:03:15;10.77;;;9.87;;
14681;SDS011;7429;52.498;13.480;2023-04-24T02:06:18;10.23;;;9.20;;
14681;SDS011;7429;52.498;13.480;2023-04-24T02:09:23;9.53;;;8.63;;
14681;SDS011;7429;52.498;13.480;2023-04-24T02:12:26;10.83;;;9.83;;
14681;SDS011;7429;52.498;13.480;2023-04-24T02:15:29;10.40;;;9.50;;
14681;SDS011;7429;52.498;13.480;2023-04-24T02:18:32;11.67;;;10.77;;
14681;SDS011;7429;52.498;13.480;2023-04-24T02:21:35;12.60;;;11.37;;
14681;SDS011;7429;52.498;13.480;2023-04-24T02:24:40;10.33;;;9.30;;
14681;SDS011;7429;52.498;13.480;2023-04-24T02:27:47;10.90;;;9.90;;
14681;SDS011;7429;52.498;13.480;2023-04-24T02:30:50;10.37;;;9.47;;
14681;SDS011;7429;52.498;13.480;2023-04-24T02:33:56;10.17;;;9.20;;
14681;SDS011;7429;52.498;13.480;2023-04-24T02:36:59;10.60;;;8.90;;
14681;SDS011;7429;52.498;13.480;2023-04-24T02:40:05;13.13;;;9.37;;
14681;SDS011;7429;52.498;13.480;2023-04-24T02:43:10;10.13;;;9.23;;
14681;SDS011;7429;52.498;13.480;2023-04-24T02:46:13;10.57;;;9.53;;
14681;SDS011;7429;52.498;13.480;2023-04-24T02:49:16;10.80;;;9.70;;
14681;SDS011;7429;52.498;13.480;2023-04-24T02:52:19;11.77;;;10.57;;
14681;SDS011;7429;52.498;13.480;2023-04-24T02:55:23;9.70;;;8.87;;
14681;SDS011;7429;52.498;13.480;2023-04-24T02:58:27;11.93;;;10.30;;
14681;SDS011;7429;52.498;13.480;2023-04-24T03:01:30;12.07;;;10.60;;
14681;SDS011;7429;52.498;13.480;2023-04-24T03:04:33;11.03;;;10.03;;
14681;SDS011;7429;52.498;13.480;2023-04-24T03:07:36;12.33;;;11.17;;
14681;SDS011;7429;52.498;13.480;2023-04-24T03:10:41;12.20;;;11.10;;
14681;SDS011;7429;52.498;13.480;2023-04-24T03:13:46;12.37;;;11.20;;
14681;SDS011;7429;52.498;13.480;2023-04-24T03:16:52;10.43;;;9.43;;
14681;SDS011;7429;52.498;13.480;2023-04-24T03:19:55;10.90;;;10.00;;
14681;SDS011;7429;52.498;13.480;2023-04-24T03:22:59;11.40;;;9.80;;
14681;SDS011;7429;52.498;13.480;2023-04-24T03:26:09;13.40;;;12.30;;
14681;SDS011;7429;52.498;13.480;2023-04-24T03:29:19;11.33;;;10.37;;
14681;SDS011;7429;52.498;13.480;2023-04-24T03:32:22;11.07;;;10.07;;
14681;SDS011;7429;52.498;13.480;2023-04-24T03:35:26;11.37;;;10.27;;
14681;SDS011;7429;52.498;13.480;2023-04-24T03:38:31;12.40;;;11.20;;
14681;SDS011;7429;52.498;13.480;2023-04-24T03:41:54;12.13;;;11.00;;
14681;SDS011;7429;52.498;13.480;2023-04-24T03:45:05;12.03;;;10.83;;
14681;SDS011;7429;52.498;13.480;2023-04-24T03:48:12;10.77;;;9.80;;
14681;SDS011;7429;52.498;13.480;2023-04-24T03:51:15;12.53;;;11.27;;
14681;SDS011;7429;52.498;13.480;2023-04-24T03:54:21;13.33;;;12.03;;
14681;SDS011;7429;52.498;13.480;2023-04-24T03:57:27;10.77;;;9.77;;
14681;SDS011;7429;52.498;13.480;2023-04-24T04:00:47;10.83;;;9.83;;
14681;SDS011;7429;52.498;13.480;2023-04-24T04:04:11;10.93;;;9.80;;
14681;SDS011;7429;52.498;13.480;2023-04-24T04:07:15;11.03;;;9.60;;
14681;SDS011;7429;52.498;13.480;2023-04-24T04:10:20;10.03;;;9.13;;
14681;SDS011;7429;52.498;13.480;2023-04-24T04:13:25;10.93;;;9.80;;
14681;SDS011;7429;52.498;13.480;2023-04-24T04:16:28;11.50;;;10.60;;
14681;SDS011;7429;52.498;13.480;2023-04-24T04:19:37;11.53;;;10.43;;
14681;SDS011;7429;52.498;13.480;2023-04-24T04:22:43;16.03;;;9.90;;
14681;SDS011;7429;52.498;13.480;2023-04-24T04:25:53;12.57;;;11.47;;
14681;SDS011;7429;52.498;13.480;2023-04-24T04:29:05;9.80;;;8.90;;
14681;SDS011;7429;52.498;13.480;2023-04-24T04:32:15;11.33;;;10.43;;
14681;SDS011;7429;52.498;13.480;2023-04-24T04:35:18;10.90;;;10.10;;
14681;SDS011;7429;52.498;13.480;2023-04-24T04:38:24;12.27;;;11.23;;
14681;SDS011;7429;52.498;13.480;2023-04-24T04:41:38;11.33;;;10.23;;
14681;SDS011;7429;52.498;13.480;2023-04-24T04:44:46;11.13;;;10.13;;
14681;SDS011;7429;52.498;13.480;2023-04-24T04:47:53;13.90;;;9.13;;
14681;SDS011;7429;52.498;13.480;2023-04-24T04:51:00;10.13;;;9.23;;
14681;SDS011;7429;52.498;13.480;2023-04-24T04:54:03;10.17;;;9.17;;
14681;SDS011;7429;52.498;13.480;2023-04-24T04:57:07;11.23;;;10.17;;
14681;SDS011;7429;52.498;13.480;2023-04-24T05:00:12;10.33;;;9.53;;
14681;SDS011;7429;52.498;13.480;2023-04-24T05:03:22;11.13;;;10.00;;
14681;SDS011;7429;52.498;13.480;2023-04-24T05:06:32;11.10;;;10.10;;
14681;SDS011;7429;52.498;13.480;2023-04-24T05:09:35;10.30;;;9.40;;
14681;SDS011;7429;52.498;13.480;2023-04-24T05:12:40;9.97;;;8.47;;
14681;SDS011;7429;52.498;13.480;2023-04-24T05:15:48;8.33;;;7.63;;
14681;SDS011;7429;52.498;13.480;2023-04-24T05:18:51;9.07;;;8.27;;
14681;SDS011;7429;52.498;13.480;2023-04-24T05:22:01;9.23;;;8.53;;
14681;SDS011;7429;52.498;13.480;2023-04-24T05:25:08;10.47;;;9.57;;
14681;SDS011;7429;52.498;13.480;2023-04-24T05:28:17;14.93;;;13.97;;
14681;SDS011;7429;52.498;13.480;2023-04-24T05:31:29;20.13;;;18.87;;
14681;SDS011;7429;52.498;13.480;2023-04-24T05:34:32;17.40;;;16.27;;
14681;SDS011;7429;52.498;13.480;2023-04-24T05:37:35;13.80;;;12.80;;
14681;SDS011;7429;52.498;13.480;2023-04-24T05:40:39;9.27;;;8.50;;
14681;SDS011;7429;52.498;13.480;2023-04-24T05:43:42;7.87;;;6.33;;
14681;SDS011;7429;52.498;13.480;2023-04-24T05:46:46;7.03;;;6.43;;
14681;SDS011;7429;52.498;13.480;2023-04-24T05:49:50;7.00;;;6.30;;
14681;SDS011;7429;52.498;13.480;2023-04-24T05:52:54;9.43;;;7.43;;
14681;SDS011;7429;52.498;13.480;2023-04-24T06:01:30;5.67;;;5.17;;
14681;SDS011;7429;52.498;13.480;2023-04-24T06:04:44;6.97;;;6.57;;
14681;SDS011;7429;52.498;13.480;2023-04-24T06:07:48;5.27;;;4.87;;
14681;SDS011;7429;52.498;13.480;2023-04-24T06:10:51;5.40;;;4.90;;
14681;SDS011;7429;52.498;13.480;2023-04-24T06:13:56;7.33;;;4.80;;
14681;SDS011;7429;52.498;13.480;2023-04-24T06:17:21;5.57;;;4.70;;
14681;SDS011;7429;52.498;13.480;2023-04-24T06:20:26;5.67;;;5.20;;
14681;SDS011;7429;52.498;13.480;2023-04-24T06:23:30;5.30;;;4.80;;
14681;SDS011;7429;52.498;13.480;2023-04-24T06:26:34;6.90;;;4.10;;
14681;SDS011;7429;52.498;13.480;2023-04-24T06:29:37;4.00;;;3.70;;
14681;SDS011;7429;52.498;13.480;2023-04-24T06:32:41;4.40;;;4.10;;
14681;SDS011;7429;52.498;13.480;2023-04-24T06:35:45;4.17;;;3.80;;
14681;SDS011;7429;52.498;13.480;2023-04-24T06:38:48;4.70;;;3.57;;
14681;SDS011;7429;52.498;13.480;2023-04-24T06:41:52;3.80;;;3.50;;
14681;SDS011;7429;52.498;13.480;2023-04-24T06:44:55;4.20;;;3.90;;
14681;SDS011;7429;52.498;13.480;2023-04-24T06:47:58;4.83;;;4.07;;
14681;SDS011;7429;52.498;13.480;2023-04-24T06:51:02;4.13;;;3.83;;
14681;SDS011;7429;52.498;13.480;2023-04-24T06:54:05;5.07;;;3.90;;
14681;SDS011;7429;52.498;13.480;2023-04-24T06:57:08;3.60;;;3.30;;
14681;SDS011;7429;52.498;13.480;2023-04-24T07:00:12;3.67;;;3.33;;
14681;SDS011;7429;52.498;13.480;2023-04-24T07:03:16;3.87;;;3.30;;
14681;SDS011;7429;52.498;13.480;2023-04-24T07:06:20;3.90;;;3.00;;
14681;SDS011;7429;52.498;13.480;2023-04-24T07:09:25;4.00;;;3.70;;
14681;SDS011;7429;52.498;13.480;2023-04-24T07:12:29;3.33;;;3.13;;
14681;SDS011;7429;52.498;13.480;2023-04-24T07:15:33;3.90;;;3.17;;
14681;SDS011;7429;52.498;13.480;2023-04-24T07:18:36;2.87;;;2.67;;
14681;SDS011;7429;52.498;13.480;2023-04-24T07:21:42;3.00;;;2.70;;
14681;SDS011;7429;52.498;13.480;2023-04-24T07:24:46;2.93;;;2.83;;
14681;SDS011;7429;52.498;13.480;2023-04-24T07:27:49;3.43;;;3.13;;
14681;SDS011;7429;52.498;13.480;2023-04-24T07:30:52;3.63;;;3.00;;
14681;SDS011;7429;52.498;13.480;2023-04-24T07:33:55;3.38;;;2.55;;
14681;SDS011;7429;52.498;13.480;2023-04-24T07:37:00;3.40;;;3.17;;
14681;SDS011;7429;52.498;13.480;2023-04-24T07:40:05;2.95;;;2.72;;
14681;SDS011;7429;52.498;13.480;2023-04-24T07:43:09;2.67;;;2.47;;
14681;SDS011;7429;52.498;13.480;2023-04-24T07:46:12;2.78;;;2.58;;
14681;SDS011;7429;52.498;13.480;2023-04-24T07:49:15;2.60;;;2.40;;
14681;SDS011;7429;52.498;13.480;2023-04-24T07:52:22;3.28;;;2.83;;
14681;SDS011;7429;52.498;13.480;2023-04-24T07:55:25;2.35;;;2.25;;
14681;SDS011;7429;52.498;13.480;2023-04-24T07:58:28;2.38;;;2.17;;
14681;SDS011;7429;52.498;13.480;2023-04-24T08:01:32;2.10;;;2.00;;
14681;SDS011;7429;52.498;13.480;2023-04-24T08:04:35;3.72;;;2.20;;
14681;SDS011;7429;52.498;13.480;2023-04-24T08:07:42;2.20;;;2.10;;
14681;SDS011;7429;52.498;13.480;2023-04-24T08:10:47;5.50;;;2.58;;
14681;SDS011;7429;52.498;13.480;2023-04-24T08:13:50;2.00;;;1.90;;
14681;SDS011;7429;52.498;13.480;2023-04-24T08:16:54;2.50;;;2.30;;
14681;SDS011;7429;52.498;13.480;2023-04-24T08:19:58;2.40;;;2.30;;
14681;SDS011;7429;52.498;13.480;2023-04-24T08:23:06;3.42;;;2.67;;
14681;SDS011;7429;52.498;13.480;2023-04-24T08:26:10;5.47;;;2.80;;
14681;SDS011;7429;52.498;13.480;2023-04-24T08:29:15;5.80;;;2.70;;
14681;SDS011;7429;52.498;13.480;2023-04-24T08:32:18;3.70;;;3.22;;
14681;SDS011;7429;52.498;13.480;2023-04-24T08:35:21;2.95;;;2.85;;
14681;SDS011;7429;52.498;13.480;2023-04-24T08:38:25;3.30;;;3.05;;
14681;SDS011;7429;52.498;13.480;2023-04-24T08:41:28;2.50;;;2.33;;
14681;SDS011;7429;52.498;13.480;2023-04-24T08:44:33;4.25;;;2.50;;
14681;SDS011;7429;52.498;13.480;2023-04-24T08:47:38;3.42;;;3.13;;
14681;SDS011;7429;52.498;13.480;2023-04-24T08:50:42;2.60;;;2.50;;
14681;SDS011;7429;52.498;13.480;2023-04-24T08:53:48;2.53;;;1.88;;
14681;SDS011;7429;52.498;13.480;2023-04-24T08:56:51;2.05;;;1.95;;
14681;SDS011;7429;52.498;13.480;2023-04-24T09:00:02;2.22;;;2.10;;
14681;SDS011;7429;52.498;13.480;2023-04-24T09:03:07;2.42;;;2.30;;
14681;SDS011;7429;52.498;13.480;2023-04-24T09:06:10;2.47;;;2.13;;
14681;SDS011;7429;52.498;13.480;2023-04-24T09:09:15;2.60;;;2.40;;
14681;SDS011;7429;52.498;13.480;2023-04-24T09:12:22;1.90;;;1.80;;
14681;SDS011;7429;52.498;13.480;2023-04-24T09:15:25;2.25;;;2.05;;
14681;SDS011;7429;52.498;13.480;2023-04-24T09:18:28;2.08;;;1.98;;
14681;SDS011;7429;52.498;13.480;2023-04-24T09:21:31;4.45;;;1.95;;
14681;SDS011;7429;52.498;13.480;2023-04-24T09:24:37;2.30;;;2.20;;
14681;SDS011;7429;52.498;13.480;2023-04-24T09:27:45;2.10;;;1.98;;
14681;SDS011;7429;52.498;13.480;2023-04-24T09:30:48;2.05;;;1.80;;
14681;SDS011;7429;52.498;13.480;2023-04-24T09:34:05;2.05;;;1.95;;
14681;SDS011;7429;52.498;13.480;2023-04-24T09:37:09;2.65;;;2.35;;
14681;SDS011;7429;52.498;13.480;2023-04-24T09:40:14;2.67;;;2.47;;
14681;SDS011;7429;52.498;13.480;2023-04-24T09:43:20;3.58;;;2.30;;
14681;SDS011;7429;52.498;13.480;2023-04-24T09:46:29;3.35;;;2.65;;
14681;SDS011;7429;52.498;13.480;2023-04-24T09:49:35;3.00;;;2.80;;
14681;SDS011;7429;52.498;13.480;2023-04-24T09:52:41;2.45;;;2.25;;
14681;SDS011;7429;52.498;13.480;2023-04-24T09:55:50;2.30;;;2.08;;
14681;SDS011;7429;52.498;13.480;2023-04-24T09:58:54;2.92;;;2.33;;
14681;SDS011;7429;52.498;13.480;2023-04-24T10:01:57;3.15;;;2.80;;
14681;SDS011;7429;52.498;13.480;2023-04-24T10:05:02;2.50;;;2.33;;
14681;SDS011;7429;52.498;13.480;2023-04-24T10:08:06;2.65;;;2.38;;
14681;SDS011;7429;52.498;13.480;2023-04-24T10:11:12;2.70;;;2.50;;
14681;SDS011;7429;52.498;13.480;2023-04-24T10:14:18;2.70;;;2.50;;
14681;SDS011;7429;52.498;13.480;2023-04-24T10:17:23;2.30;;;2.10;;
14681;SDS011;7429;52.498;13.480;2023-04-24T10:20:28;3.83;;;2.92;;
14681;SDS011;7429;52.498;13.480;2023-04-24T10:23:32;3.88;;;2.92;;
14681;SDS011;7429;52.498;13.480;2023-04-24T10:26:40;2.00;;;1.90;;
14681;SDS011;7429;52.498;13.480;2023-04-24T10:29:44;2.40;;;2.20;;
14681;SDS011;7429;52.498;13.480;2023-04-24T10:32:50;3.30;;;3.10;;
14681;SDS011;7429;52.498;13.480;2023-04-24T10:35:53;3.88;;;2.50;;
14681;SDS011;7429;52.498;13.480;2023-04-24T10:38:57;2.60;;;2.50;;
14681;SDS011;7429;52.498;13.480;2023-04-24T10:42:14;2.38;;;2.28;;
14681;SDS011;7429;52.498;13.480;2023-04-24T10:45:18;2.22;;;2.13;;
14681;SDS011;7429;52.498;13.480;2023-04-24T10:48:26;3.42;;;1.90;;
14681;SDS011;7429;52.498;13.480;2023-04-24T10:51:42;2.65;;;2.45;;
14681;SDS011;7429;52.498;13.480;2023-04-24T10:54:50;2.47;;;2.33;;
14681;SDS011;7429;52.498;13.480;2023-04-24T10:58:04;2.75;;;2.10;;
14681;SDS011;7429;52.498;13.480;2023-04-24T11:01:07;2.88;;;2.63;;
14681;SDS011;7429;52.498;13.480;2023-04-24T11:04:11;2.63;;;2.42;;
14681;SDS011;7429;52.498;13.480;2023-04-24T11:07:15;3.15;;;2.90;;
14681;SDS011;7429;52.498;13.480;2023-04-24T11:10:24;3.55;;;3.35;;
14681;SDS011;7429;52.498;13.480;2023-04-24T11:17:08;3.05;;;2.72;;
14681;SDS011;7429;52.498;13.480;2023-04-24T11:20:15;2.90;;;2.70;;
14681;SDS011;7429;52.498;13.480;2023-04-24T11:23:25;2.28;;;2.17;;
14681;SDS011;7429;52.498;13.480;2023-04-24T11:26:28;3.67;;;2.58;;
14681;SDS011;7429;52.498;13.480;2023-04-24T11:29:44;2.40;;;2.20;;
14681;SDS011;7429;52.498;13.480;2023-04-24T11:32:51;2.38;;;2.25;;
14681;SDS011;7429;52.498;13.480;2023-04-24T11:35:55;2.45;;;2.25;;
14681;SDS011;7429;52.498;13.480;2023-04-24T11:38:58;2.67;;;2.38;;
14681;SDS011;7429;52.498;13.480;2023-04-24T11:42:02;4.00;;;2.83;;
14681;SDS011;7429;52.498;13.480;2023-04-24T11:45:10;3.42;;;3.13;;
14681;SDS011;7429;52.498;13.480;2023-04-24T11:48:18;3.65;;;3.45;;
14681;SDS011;7429;52.498;13.480;2023-04-24T11:51:24;4.93;;;4.53;;
14681;SDS011;7429;52.498;13.480;2023-04-24T11:54:36;4.57;;;4.07;;
14681;SDS011;7429;52.498;13.480;2023-04-24T11:57:40;5.18;;;4.43;;
14681;SDS011;7429;52.498;13.480;2023-04-24T12:00:54;4.60;;;4.18;;
14681;SDS011;7429;52.498;13.480;2023-04-24T12:03:59;4.25;;;3.92;;
14681;SDS011;7429;52.498;13.480;2023-04-24T12:07:03;6.18;;;3.33;;
14681;SDS011;7429;52.498;13.480;2023-04-24T12:10:07;5.30;;;3.67;;
14681;SDS011;7429;52.498;13.480;2023-04-24T12:13:11;4.20;;;3.10;;
14681;SDS011;7429;52.498;13.480;2023-04-24T12:16:17;2.80;;;2.25;;
14681;SDS011;7429;52.498;13.480;2023-04-24T12:19:20;3.50;;;2.90;;
14681;SDS011;7429;52.498;13.480;2023-04-24T12:22:24;3.70;;;3.40;;
14681;SDS011;7429;52.498;13.480;2023-04-24T12:25:28;6.63;;;2.42;;
14681;SDS011;7429;52.498;13.480;2023-04-24T12:28:34;2.35;;;2.22;;
14681;SDS011;7429;52.498;13.480;2023-04-24T12:31:39;2.40;;;2.30;;
14681;SDS011;7429;52.498;13.480;2023-04-24T12:34:43;3.22;;;2.20;;
14681;SDS011;7429;52.498;13.480;2023-04-24T12:37:47;2.40;;;2.30;;
14681;SDS011;7429;52.498;13.480;2023-04-24T12:41:01;2.40;;;2.30;;
14681;SDS011;7429;52.498;13.480;2023-04-24T12:44:10;2.25;;;2.15;;
14681;SDS011;7429;52.498;13.480;2023-04-24T12:47:15;3.25;;;2.72;;
14681;SDS011;7429;52.498;13.480;2023-04-24T12:50:18;2.45;;;2.25;;
14681;SDS011;7429;52.498;13.480;2023-04-24T12:53:22;2.30;;;2.20;;
14681;SDS011;7429;52.498;13.480;2023-04-24T12:56:28;2.10;;;2.00;;
14681;SDS011;7429;52.498;13.480;2023-04-24T12:59:34;2.70;;;2.50;;
14681;SDS011;7429;52.498;13.480;2023-04-24T13:02:38;2.10;;;2.00;;
14681;SDS011;7429;52.498;13.480;2023-04-24T13:05:44;2.40;;;2.30;;
14681;SDS011;7429;52.498;13.480;2023-04-24T13:08:47;2.22;;;2.13;;
14681;SDS011;7429;52.498;13.480;2023-04-24T13:11:50;2.00;;;1.90;;
14681;SDS011;7429;52.498;13.480;2023-04-24T13:14:53;3.08;;;2.03;;
14681;SDS011;7429;52.498;13.480;2023-04-24T13:17:58;2.38;;;2.17;;
14681;SDS011;7429;52.498;13.480;2023-04-24T13:21:01;2.30;;;2.10;;
14681;SDS011;7429;52.498;13.480;2023-04-24T13:24:05;2.50;;;2.40;;
14681;SDS011;7429;52.498;13.480;2023-04-24T13:27:09;2.83;;;2.10;;
14681;SDS011;7429;52.498;13.480;2023-04-24T13:30:12;2.40;;;2.20;;
14681;SDS011;7429;52.498;13.480;2023-04-24T13:33:17;2.22;;;2.13;;
14681;SDS011;7429;52.498;13.480;2023-04-24T13:36:20;2.22;;;2.08;;
14681;SDS011;7429;52.498;13.480;2023-04-24T13:39:24;2.47;;;2.28;;
14681;SDS011;7429;52.498;13.480;2023-04-24T13:42:28;3.47;;;2.15;;
14681;SDS011;7429;52.498;13.480;2023-04-24T13:45:31;2.25;;;2.10;;
14681;SDS011;7429;52.498;13.480;2023-04-24T13:49:07;2.33;;;2.22;;
14681;SDS011;7429;52.498;13.480;2023-04-24T13:52:10;4.10;;;2.10;;
14681;SDS011;7429;52.498;13.480;2023-04-24T13:55:13;2.30;;;2.10;;
14681;SDS011;7429;52.498;13.480;2023-04-24T13:58:17;2.17;;;2.00;;
14681;SDS011;7429;52.498;13.480;2023-04-24T14:01:20;4.75;;;2.42;;
14681;SDS011;7429;52.498;13.480;2023-04-24T14:04:26;2.45;;;2.08;;
14681;SDS011;7429;52.498;13.480;2023-04-24T14:07:30;3.33;;;3.00;;
14681;SDS011;7429;52.498;13.480;2023-04-24T14:10:33;2.22;;;2.03;;
14681;SDS011;7429;52.498;13.480;2023-04-24T14:13:36;2.47;;;2.28;;
14681;SDS011;7429;52.498;13.480;2023-04-24T14:16:39;2.63;;;2.50;;
14681;SDS011;7429;52.498;13.480;2023-04-24T14:19:44;2.35;;;2.17;;
14681;SDS011;7429;52.498;13.480;2023-04-24T14:22:47;2.30;;;2.20;;
14681;SDS011;7429;52.498;13.480;2023-04-24T14:25:50;3.33;;;2.30;;
14681;SDS011;7429;52.498;13.480;2023-04-24T14:28:53;2.47;;;2.28;;
14681;SDS011;7429;52.498;13.480;2023-04-24T14:32:07;2.55;;;2.30;;
14681;SDS011;7429;52.498;13.480;2023-04-24T14:35:12;5.10;;;2.50;;
14681;SDS011;7429;52.498;13.480;2023-04-24T14:38:15;2.50;;;2.30;;
14681;SDS011;7429;52.498;13.480;2023-04-24T14:41:19;1.98;;;1.88;;
14681;SDS011;7429;52.498;13.480;2023-04-24T14:44:22;3.88;;;2.10;;
14681;SDS011;7429;52.498;13.480;2023-04-24T14:47:25;2.80;;;2.58;;
14681;SDS011;7429;52.498;13.480;2023-04-24T14:50:30;2.22;;;2.13;;
14681;SDS011;7429;52.498;13.480;2023-04-24T14:53:33;6.18;;;2.97;;
14681;SDS011;7429;52.498;13.480;2023-04-24T14:56:39;2.28;;;2.08;;
14681;SDS011;7429;52.498;13.480;2023-04-24T14:59:44;3.50;;;2.47;;
14681;SDS011;7429;52.498;13.480;2023-04-24T15:02:47;4.20;;;2.60;;
14681;SDS011;7429;52.498;13.480;2023-04-24T15:05:51;4.50;;;2.22;;
14681;SDS011;7429;52.498;13.480;2023-04-24T15:08:55;2.28;;;2.08;;
14681;SDS011;7429;52.498;13.480;2023-04-24T15:11:58;2.83;;;2.72;;
14681;SDS011;7429;52.498;13.480;2023-04-24T15:15:04;2.50;;;2.30;;
14681;SDS011;7429;52.498;13.480;2023-04-24T15:18:09;2.65;;;2.53;;
14681;SDS011;7429;52.498;13.480;2023-04-24T15:21:14;3.10;;;2.10;;
14681;SDS011;7429;52.498;13.480;2023-04-24T15:24:18;2.17;;;2.08;;
14681;SDS011;7429;52.498;13.480;2023-04-24T15:27:21;2.55;;;2.35;;
14681;SDS011;7429;52.498;13.480;2023-04-24T15:30:26;2.55;;;2.40;;
14681;SDS011;7429;52.498;13.480;2023-04-24T15:33:29;4.88;;;2.60;;
14681;SDS011;7429;52.498;13.480;2023-04-24T15:36:33;5.13;;;2.70;;
14681;SDS011;7429;52.498;13.480;2023-04-24T15:39:36;2.83;;;2.63;;
14681;SDS011;7429;52.498;13.480;2023-04-24T15:42:40;3.25;;;2.95;;
14681;SDS011;7429;52.498;13.480;2023-04-24T15:45:45;2.78;;;2.30;;
14681;SDS011;7429;52.498;13.480;2023-04-24T15:48:48;3.05;;;2.40;;
14681;SDS011;7429;52.498;13.480;2023-04-24T15:51:53;3.40;;;2.50;;
14681;SDS011;7429;52.498;13.480;2023-04-24T15:54:57;3.92;;;2.85;;
14681;SDS011;7429;52.498;13.480;2023-04-24T15:58:00;3.53;;;2.40;;
14681;SDS011;7429;52.498;13.480;2023-04-24T16:01:05;3.92;;;2.60;;
14681;SDS011;7429;52.498;13.480;2023-04-24T16:04:08;3.05;;;2.60;;
14681;SDS011;7429;52.498;13.480;2023-04-24T16:07:13;3.80;;;2.95;;
14681;SDS011;7429;52.498;13.480;2023-04-24T16:10:19;2.45;;;2.35;;
14681;SDS011;7429;52.498;13.480;2023-04-24T16:13:22;3.58;;;2.70;;
14681;SDS011;7429;52.498;13.480;2023-04-24T16:16:25;3.58;;;2.88;;
14681;SDS011;7429;52.498;13.480;2023-04-24T16:19:29;3.22;;;2.92;;
14681;SDS011;7429;52.498;13.480;2023-04-24T16:22:38;3.33;;;2.67;;
14681;SDS011;7429;52.498;13.480;2023-04-24T16:25:42;3.17;;;2.97;;
14681;SDS011;7429;52.498;13.480;2023-04-24T16:28:45;3.65;;;3.35;;
14681;SDS011;7429;52.498;13.480;2023-04-24T16:31:48;2.92;;;2.38;;
14681;SDS011;7429;52.498;13.480;2023-04-24T16:34:51;3.30;;;3.10;;
14681;SDS011;7429;52.498;13.480;2023-04-24T16:37:56;2.45;;;2.35;;
14681;SDS011;7429;52.498;13.480;2023-04-24T16:41:00;3.25;;;2.47;;
14681;SDS011;7429;52.498;13.480;2023-04-24T16:44:03;3.13;;;2.88;;
14681;SDS011;7429;52.498;13.480;2023-04-24T16:47:06;3.28;;;3.00;;
14681;SDS011;7429;52.498;13.480;2023-04-24T16:50:10;3.03;;;2.83;;
14681;SDS011;7429;52.498;13.480;2023-04-24T16:53:15;2.95;;;2.63;;
14681;SDS011;7429;52.498;13.480;2023-04-24T16:56:18;2.88;;;2.50;;
14681;SDS011;7429;52.498;13.480;2023-04-24T16:59:21;3.42;;;2.80;;
14681;SDS011;7429;52.498;13.480;2023-04-24T17:02:25;4.00;;;2.78;;
14681;SDS011;7429;52.498;13.480;2023-04-24T17:05:29;2.72;;;2.63;;
14681;SDS011;7429;52.498;13.480;2023-04-24T17:08:37;6.43;;;2.93;;
14681;SDS011;7429;52.498;13.480;2023-04-24T17:11:40;2.97;;;2.47;;
14681;SDS011;7429;52.498;13.480;2023-04-24T17:14:43;2.80;;;2.60;;
14681;SDS011;7429;52.498;13.480;2023-04-24T17:17:47;2.67;;;2.57;;
14681;SDS011;7429;52.498;13.480;2023-04-24T17:20:51;2.53;;;2.43;;
14681;SDS011;7429;52.498;13.480;2023-04-24T17:23:55;2.80;;;2.70;;
14681;SDS011;7429;52.498;13.480;2023-04-24T17:26:59;3.40;;;3.00;;
14681;SDS011;7429;52.498;13.480;2023-04-24T17:30:15;6.97;;;3.60;;
14681;SDS011;7429;52.498;13.480;2023-04-24T17:33:18;2.90;;;2.60;;
14681;SDS011;7429;52.498;13.480;2023-04-24T17:36:21;3.00;;;2.80;;
14681;SDS011;7429;52.498;13.480;2023-04-24T17:39:26;3.03;;;2.83;;
14681;SDS011;7429;52.498;13.480;2023-04-24T17:42:29;3.07;;;2.87;;
14681;SDS011;7429;52.498;13.480;2023-04-24T17:45:32;3.80;;;2.97;;
14681;SDS011;7429;52.498;13.480;2023-04-24T17:48:37;2.97;;;2.77;;
14681;SDS011;7429;52.498;13.480;2023-04-24T17:51:40;3.40;;;3.10;;
14681;SDS011;7429;52.498;13.480;2023-04-24T17:54:45;2.93;;;2.80;;
14681;SDS011;7429;52.498;13.480;2023-04-24T17:57:50;3.20;;;3.00;;
14681;SDS011;7429;52.498;13.480;2023-04-24T18:00:54;3.80;;;3.20;;
14681;SDS011;7429;52.498;13.480;2023-04-24T18:03:58;4.33;;;3.20;;
14681;SDS011;7429;52.498;13.480;2023-04-24T18:07:02;4.37;;;3.23;;
14681;SDS011;7429;52.498;13.480;2023-04-24T18:10:07;3.60;;;3.40;;
14681;SDS011;7429;52.498;13.480;2023-04-24T18:13:10;4.47;;;3.77;;
14681;SDS011;7429;52.498;13.480;2023-04-24T18:16:14;3.17;;;2.97;;
14681;SDS011;7429;52.498;13.480;2023-04-24T18:19:17;4.30;;;3.10;;
14681;SDS011;7429;52.498;13.480;2023-04-24T18:22:20;5.20;;;4.07;;
14681;SDS011;7429;52.498;13.480;2023-04-24T18:25:25;2.77;;;2.67;;
14681;SDS011;7429;52.498;13.480;2023-04-24T18:28:28;2.97;;;2.77;;
14681;SDS011;7429;52.498;13.480;2023-04-24T18:31:35;3.53;;;3.00;;
14681;SDS011;7429;52.498;13.480;2023-04-24T18:34:38;5.30;;;3.40;;
14681;SDS011;7429;52.498;13.480;2023-04-24T18:37:41;3.60;;;3.30;;